Time;durP1;ratioP1;P1;durP2;ratioP2;P2;SDS_P1;SDS_P2;PMS_P1;PMS_P2;Temp;Humidity;BMP_temperature;BMP_pressure;BME280_temperature;BME280_humidity;BME280_pressure;Samples;Min_cycle;Max_cycle;Signal;HPM_P1;HPM_P2
2020/12/27 00:00:14;;;;;;;11.40;5.43;;;;;;;0.93;68.33;99894.34;3862609;23;20024;-74
2020/12/27 00:01:47;;;;;;;10.65;5.05;;;;;;;0.93;68.21;99897.81;3862247;23;20032;-77
2020/12/27 00:03:19;;;;;;;11.50;5.45;;;;;;;0.89;67.80;99901.56;3862914;23;20256;-77
2020/12/27 00:04:50;;;;;;;8.05;4.70;;;;;;;0.89;68.05;99895.44;3862674;23;20051;-77
2020/12/27 00:06:25;;;;;;;10.25;4.78;;;;;;;0.95;67.77;99900.34;3860984;23;20024;-77
2020/12/27 00:08:17;;;;;;;10.80;5.10;;;;;;;0.88;67.13;99896.38;3859045;23;20098;-75
2020/12/27 00:09:49;;;;;;;;;;;;;;;0.84;66.98;99886.97;3863560;23;20024;-76
2020/12/27 00:11:20;;;;;;;10.35;4.78;;;;;;;0.86;67.62;99887.72;3845640;23;19916;-77
2020/12/27 00:12:52;;;;;;;9.82;4.47;;;;;;;0.86;67.62;99892.97;3846448;23;20028;-76
2020/12/27 00:14:23;;;;;;;11.70;5.40;;;;;;;0.85;67.56;99875.50;3841122;23;20430;-76
2020/12/27 00:15:55;;;;;;;9.32;5.57;;;;;;;0.87;67.29;99884.16;3844926;23;20025;-76
2020/12/27 00:17:26;;;;;;;12.43;5.10;;;;;;;0.80;67.30;99867.00;3840807;23;20032;-76
2020/12/27 00:18:57;;;;;;;;;;;;;;;0.73;67.13;99869.13;3845546;23;20454;-77
2020/12/27 00:20:27;;;;;;;8.60;4.00;;;;;;;0.77;67.45;99858.34;3841378;23;19919;-75
2020/12/27 00:21:59;;;;;;;;;;;;;;;0.66;66.89;99852.88;3846590;23;20031;-77
2020/12/27 00:23:30;;;;;;;13.57;4.60;;;;;;;0.69;67.27;99847.41;3858208;23;19915;-76
2020/12/27 00:25:01;;;;;;;9.82;4.68;;;;;;;0.70;66.97;99841.22;3864371;23;20055;-75
2020/12/27 00:26:32;;;;;;;6.85;3.42;;;;;;;0.77;67.09;99832.03;3858870;23;20021;-74
2020/12/27 00:28:04;;;;;;;;;;;;;;;0.69;66.58;99834.25;3861420;23;20021;-73
2020/12/27 00:29:36;;;;;;;13.70;4.70;;;;;;;0.75;66.89;99822.53;3843081;23;19916;-75
2020/12/27 00:31:07;;;;;;;9.30;5.00;;;;;;;0.72;66.70;99822.69;3843879;23;20045;-77
2020/12/27 00:32:38;;;;;;;11.93;5.07;;;;;;;0.69;66.66;99825.53;3845827;23;20055;-75
2020/12/27 00:34:10;;;;;;;10.45;5.35;;;;;;;0.73;66.83;99819.13;3842735;23;20484;-77
2020/12/27 00:35:41;;;;;;;10.25;5.32;;;;;;;0.67;66.68;99820.31;3864202;23;20028;-76
2020/12/27 00:37:12;;;;;;;7.50;3.90;;;;;;;0.66;66.87;99813.41;3860343;23;20024;-75
2020/12/27 00:38:43;;;;;;;;;;;;;;;0.64;66.40;99812.63;3861867;23;20024;-77
2020/12/27 00:40:14;;;;;;;9.25;4.35;;;;;;;0.70;66.69;99812.28;3858979;23;19916;-75
2020/12/27 00:41:45;;;;;;;8.52;3.47;;;;;;;0.81;66.37;99809.00;3862088;23;20024;-77
2020/12/27 00:43:17;;;;;;;10.15;3.67;;;;;;;0.83;66.21;99808.94;3856320;23;20357;-77
2020/12/27 00:44:48;;;;;;;7.95;3.58;;;;;;;0.89;66.08;99808.59;3857470;23;20400;-76
2020/12/27 00:46:19;;;;;;;9.57;4.30;;;;;;;0.82;65.95;99800.19;3858601;23;20032;-77
2020/12/27 00:47:50;;;;;;;;;;;;;;;0.74;65.56;99800.66;3859583;23;20060;-76
2020/12/27 00:49:22;;;;;;;9.32;4.45;;;;;;;0.74;65.79;99790.13;3857710;23;19923;-77
2020/12/27 00:50:53;;;;;;;9.77;4.43;;;;;;;0.74;66.11;99792.75;3864122;23;20076;-76
2020/12/27 00:52:24;;;;;;;9.93;5.10;;;;;;;0.72;65.83;99780.59;3857131;23;20083;-76
2020/12/27 00:53:56;;;;;;;8.13;4.10;;;;;;;0.73;65.93;99780.53;3860886;23;20020;-77
2020/12/27 00:55:27;;;;;;;8.43;4.35;;;;;;;0.76;65.71;99764.53;3850634;23;20028;-77
2020/12/27 00:56:58;;;;;;;8.30;4.07;;;;;;;0.77;65.70;99768.88;3860572;23;20024;-76
2020/12/27 00:58:31;;;;;;;10.70;4.63;;;;;;;0.70;65.61;99771.97;3852407;23;20044;-76
2020/12/27 01:00:03;;;;;;;8.10;4.28;;;;;;;0.69;65.61;99765.84;3859190;23;20647;-76
2020/12/27 01:01:35;;;;;;;9.88;4.30;;;;;;;0.70;65.34;99766.72;3857551;23;20025;-76
2020/12/27 01:03:06;;;;;;;9.77;4.95;;;;;;;0.70;65.51;99762.28;3859517;23;20020;-76
2020/12/27 01:04:37;;;;;;;9.57;4.55;;;;;;;0.68;65.52;99748.34;3859122;23;20129;-76
2020/12/27 01:06:08;;;;;;;;;;;;;;;0.63;65.23;99742.53;3858062;23;20029;-77
2020/12/27 01:07:39;;;;;;;8.57;4.13;;;;;;;0.66;65.44;99744.13;3852458;23;19927;-77
2020/12/27 01:09:12;;;;;;;7.97;4.05;;;;;;;0.69;65.49;99755.31;3852060;23;20021;-76
2020/12/27 01:10:45;;;;;;;7.85;3.78;;;;;;;0.67;65.57;99749.28;3834974;23;20017;-74
2020/12/27 01:12:16;;;;;;;7.97;3.85;;;;;;;0.66;65.39;99733.59;3859585;23;20040;-78
2020/12/27 01:13:48;;;;;;;8.05;3.92;;;;;;;0.64;65.31;99744.22;3861276;23;20020;-76
2020/12/27 01:15:19;;;;;;;8.35;4.10;;;;;;;0.65;65.30;99734.53;3863719;23;20025;-75
2020/12/27 01:16:50;;;;;;;9.02;3.95;;;;;;;0.67;65.33;99730.03;3861060;23;20027;-74
2020/12/27 01:18:21;;;;;;;;;;;;;;;0.57;65.08;99725.31;3862804;23;20024;-74
2020/12/27 01:19:52;;;;;;;11.85;4.43;;;;;;;0.47;65.35;99718.88;3863161;23;19934;-75
2020/12/27 01:21:25;;;;;;;8.82;3.75;;;;;;;0.52;65.29;99721.25;3863996;23;20025;-77
2020/12/27 01:22:56;;;;;;;7.47;3.67;;;;;;;0.53;65.37;99720.31;3859470;23;20025;-77
2020/12/27 01:24:27;;;;;;;;;;;;;;;0.42;65.06;99721.78;3863976;23;20082;-76
2020/12/27 01:25:57;;;;;;;7.25;3.42;;;;;;;0.44;65.38;99703.25;3849090;23;19920;-76
2020/12/27 01:27:29;;;;;;;6.20;3.28;;;;;;;0.53;65.25;99699.25;3841430;23;20035;-77
2020/12/27 01:29:01;;;;;;;7.93;4.45;;;;;;;0.56;65.11;99696.47;3840107;23;20032;-76
2020/12/27 01:30:32;;;;;;;8.13;3.88;;;;;;;0.58;65.32;99692.81;3844348;23;20025;-76
2020/12/27 01:32:04;;;;;;;;;;;;;;;0.46;64.86;99686.47;3838300;23;20462;-75
2020/12/27 01:33:36;;;;;;;7.75;3.88;;;;;;;0.53;65.14;99683.47;3841899;23;19916;-76
2020/12/27 01:35:07;;;;;;;8.38;3.40;;;;;;;0.53;65.00;99681.69;3840203;23;20025;-76
2020/12/27 01:36:40;;;;;;;;;;;;;;;0.51;64.69;99669.56;3844457;23;20021;-77
2020/12/27 01:38:11;;;;;;;7.05;3.40;;;;;;;0.55;64.78;99674.56;3839858;23;19916;-77
2020/12/27 01:39:42;;;;;;;8.50;3.70;;;;;;;0.59;64.71;99670.81;3842525;23;20095;-76
2020/12/27 01:41:13;;;;;;;7.57;3.33;;;;;;;0.61;64.75;99657.56;3837787;23;20071;-77
2020/12/27 01:42:52;;;;;;;6.35;3.10;;;;;;;0.64;64.23;99664.44;3843341;23;20021;-77
2020/12/27 01:44:25;;;;;;;6.68;3.30;;;;;;;0.69;64.64;99665.84;3837547;23;20017;-74
2020/12/27 01:45:55;;;;;;;6.30;3.42;;;;;;;0.66;64.55;99654.66;3838677;23;20025;-77
2020/12/27 01:47:29;;;;;;;;;;;;;;;0.48;64.21;99646.94;3836984;23;20533;-77
2020/12/27 01:49:00;;;;;;;6.88;3.83;;;;;;;0.59;64.47;99638.38;3839918;23;20469;-75
2020/12/27 01:50:31;;;;;;;7.68;3.45;;;;;;;0.56;64.72;99638.59;3837511;23;20020;-76
2020/12/27 01:52:03;;;;;;;8.80;3.78;;;;;;;0.49;64.62;99631.97;3837657;23;20024;-76
2020/12/27 01:53:34;;;;;;;7.00;3.35;;;;;;;0.49;64.50;99627.59;3837718;23;20506;-75
2020/12/27 01:55:05;;;;;;;;;;;;;;;0.39;64.08;99623.78;3835892;23;20025;-77
2020/12/27 01:56:39;;;;;;;6.88;3.15;;;;;;;0.44;64.17;99619.97;3836322;23;20297;-75
2020/12/27 01:58:18;;;;;;;7.28;3.60;;;;;;;0.43;64.04;99618.25;3836996;23;20040;-77
2020/12/27 01:59:51;;;;;;;6.63;3.00;;;;;;;0.51;63.84;99619.59;3839091;23;20075;-76
2020/12/27 02:01:28;;;;;;;7.47;3.58;;;;;;;0.48;63.91;99612.72;3836209;23;20043;-77
2020/12/27 02:02:59;;;;;;;5.15;2.78;;;;;;;0.52;63.93;99605.50;3842352;23;20021;-76
2020/12/27 02:04:31;;;;;;;;;;;;;;;0.36;63.94;99595.03;3842659;23;20069;-77
2020/12/27 02:06:04;;;;;;;6.43;3.15;;;;;;;0.42;63.93;99592.06;3838565;23;19916;-77
2020/12/27 02:07:36;;;;;;;7.25;3.35;;;;;;;0.41;64.16;99578.03;3838249;23;20027;-77
2020/12/27 02:09:07;;;;;;;7.95;3.30;;;;;;;0.41;64.12;99572.78;3842956;23;20017;-74
2020/12/27 02:10:40;;;;;;;7.97;3.25;;;;;;;0.47;63.86;99588.19;3852474;23;20080;-74
2020/12/27 02:12:13;;;;;;;7.57;4.03;;;;;;;0.46;64.06;99568.13;3869122;23;20027;-77
2020/12/27 02:13:49;;;;;;;10.77;3.67;;;;;;;0.39;63.93;99572.03;3864197;23;20024;-78
2020/12/27 02:15:21;;;;;;;6.53;3.03;;;;;;;0.46;64.03;99562.84;3865675;23;20080;-75
2020/12/27 02:16:54;;;;;;;5.60;3.00;;;;;;;0.52;63.80;99568.69;3862677;23;20039;-76
2020/12/27 02:18:26;;;;;;;8.18;3.55;;;;;;;0.52;63.73;99563.41;3866846;23;20020;-78
2020/12/27 02:19:56;;;;;;;5.75;2.97;;;;;;;0.49;63.90;99555.69;3862639;23;20016;-76
2020/12/27 02:21:28;;;;;;;;;;;;;;;0.38;63.96;99544.03;3867322;23;20086;-75
2020/12/27 02:22:59;;;;;;;6.78;3.55;;;;;;;0.37;64.21;99537.09;3849441;23;19910;-74
2020/12/27 02:24:33;;;;;;;8.13;3.38;;;;;;;0.39;63.85;99540.47;3848544;23;20021;-77
2020/12/27 02:26:06;;;;;;;8.82;3.67;;;;;;;0.37;64.11;99536.25;3846226;23;20021;-75
2020/12/27 02:27:37;;;;;;;8.00;3.75;;;;;;;0.32;64.28;99526.00;3848817;23;20033;-75
2020/12/27 02:29:09;;;;;;;6.80;3.10;;;;;;;0.31;64.28;99513.78;3845790;23;20025;-77
2020/12/27 02:30:40;;;;;;;7.53;3.10;;;;;;;0.33;64.37;99506.66;3845790;23;20369;-77
2020/12/27 02:32:11;;;;;;;7.70;3.25;;;;;;;0.38;64.17;99487.97;3840632;23;20021;-78
2020/12/27 02:33:42;;;;;;;;;;;;;;;0.27;64.15;99489.47;3843244;23;20020;-77
2020/12/27 02:35:14;;;;;;;6.80;2.50;;;;;;;0.35;64.22;99486.38;3843354;23;19947;-75
2020/12/27 02:36:44;;;;;;;8.18;2.90;;;;;;;0.36;64.33;99488.06;3844296;23;20598;-76
2020/12/27 02:38:15;;;;;;;;;;;;;;;0.29;64.04;99484.97;3851925;23;20074;-77
2020/12/27 02:39:48;;;;;;;6.80;3.53;;;;;;;0.37;64.10;99481.03;3861247;23;19916;-77
2020/12/27 02:41:20;;;;;;;6.93;2.97;;;;;;;0.38;63.92;99467.75;3855025;23;20397;-77
2020/12/27 02:42:52;;;;;;;8.00;3.40;;;;;;;0.29;63.98;99469.19;3861282;23;20024;-77
2020/12/27 02:44:22;;;;;;;7.07;3.22;;;;;;;0.29;64.13;99452.56;3838549;23;20021;-77
2020/12/27 02:45:54;;;;;;;;;;;;;;;0.21;64.26;99450.41;3841272;23;20024;-76
2020/12/27 02:47:26;;;;;;;7.40;3.28;;;;;;;0.26;64.14;99455.38;3838560;23;19916;-76
2020/12/27 02:48:57;;;;;;;7.93;3.05;;;;;;;0.26;64.14;99444.88;3840533;23;20017;-77
2020/12/27 02:50:28;;;;;;;7.25;2.85;;;;;;;0.31;64.05;99440.16;3838167;23;20024;-75
2020/12/27 02:51:59;;;;;;;;;;;;;;;0.14;63.85;99435.97;3840995;23;20017;-77
2020/12/27 02:53:30;;;;;;;7.85;3.97;;;;;;;0.24;64.20;99433.59;3836928;23;19983;-76
2020/12/27 02:55:02;;;;;;;6.72;3.13;;;;;;;0.20;64.22;99424.19;3840330;23;20054;-77
2020/12/27 02:56:34;;;;;;;6.47;2.97;;;;;;;0.19;64.21;99427.78;3837394;23;20028;-75
2020/12/27 02:58:05;;;;;;;6.38;3.13;;;;;;;0.20;64.08;99417.16;3837436;23;20021;-77
2020/12/27 02:59:44;;;;;;;8.00;3.50;;;;;;;0.26;63.74;99415.94;3866280;23;20024;-76
2020/12/27 03:01:16;;;;;;;6.15;3.20;;;;;;;0.25;64.20;99419.50;3868529;23;20032;-77
2020/12/27 03:02:47;;;;;;;7.82;3.13;;;;;;;0.24;63.96;99416.03;3861481;23;20096;-77
2020/12/27 03:04:18;;;;;;;6.05;2.83;;;;;;;0.29;63.97;99402.59;3859121;23;20029;-76
2020/12/27 03:05:50;;;;;;;6.75;3.28;;;;;;;0.23;64.15;99400.34;3861282;23;20188;-77
2020/12/27 03:07:21;;;;;;;7.65;3.88;;;;;;;0.22;64.24;99393.41;3851087;23;20024;-77
2020/12/27 03:08:54;;;;;;;8.20;3.30;;;;;;;0.14;64.42;99394.72;3839117;23;20029;-77
2020/12/27 03:10:26;;;;;;;8.77;3.40;;;;;;;0.21;64.12;99397.81;3837799;23;20068;-77
2020/12/27 03:11:58;;;;;;;6.38;3.22;;;;;;;0.17;64.22;99392.84;3837992;23;20350;-76
2020/12/27 03:13:32;;;;;;;7.65;3.30;;;;;;;0.15;64.30;99393.78;3830765;23;20018;-77
2020/12/27 03:15:03;;;;;;;6.00;2.88;;;;;;;0.21;64.32;99397.81;3822181;23;20028;-77
2020/12/27 03:16:34;;;;;;;6.93;3.03;;;;;;;0.18;64.19;99399.81;3817843;23;20018;-75
2020/12/27 03:18:05;;;;;;;;;;;;;;;0.05;64.29;99397.09;3820848;23;20031;-77
2020/12/27 03:19:36;;;;;;;5.88;3.00;;;;;;;0.12;64.29;99391.34;3823861;23;19919;-77
2020/12/27 03:21:07;;;;;;;8.40;3.03;;;;;;;0.13;64.15;99379.06;3840271;23;20024;-77
2020/12/27 03:22:38;;;;;;;;;;;;;;;-0.01;64.58;99387.78;3837235;23;20032;-76
2020/12/27 03:24:09;;;;;;;9.02;3.72;;;;;;;0.04;64.63;99382.25;3838440;23;19944;-76
2020/12/27 03:25:41;;;;;;;12.07;3.20;;;;;;;0.09;64.43;99377.53;3836593;23;20044;-75
2020/12/27 03:27:13;;;;;;;6.63;3.10;;;;;;;0.11;64.40;99368.63;3837704;23;20021;-76
2020/12/27 03:28:43;;;;;;;6.30;3.20;;;;;;;0.12;64.49;99372.94;3836109;23;20060;-76
2020/12/27 03:30:14;;;;;;;;;;;;;;;0.03;64.65;99373.50;3840319;23;20385;-76
2020/12/27 03:31:46;;;;;;;6.90;3.80;;;;;;;0.08;64.61;99362.72;3838628;23;19927;-77
2020/12/27 03:33:17;;;;;;;5.80;2.58;;;;;;;0.16;64.48;99365.72;3838759;23;20039;-77
2020/12/27 03:34:48;;;;;;;8.13;3.75;;;;;;;0.14;64.65;99370.25;3838349;23;20029;-77
2020/12/27 03:36:20;;;;;;;6.90;3.08;;;;;;;0.12;64.62;99357.16;3839533;23;20081;-77
2020/12/27 03:37:51;;;;;;;8.35;3.33;;;;;;;0.14;64.72;99360.56;3838811;23;20021;-76
2020/12/27 03:39:22;;;;;;;9.73;3.47;;;;;;;0.18;65.02;99360.38;3841407;23;20072;-78
2020/12/27 03:40:56;;;;;;;7.90;3.20;;;;;;;0.22;64.63;99349.56;3835093;23;20025;-77
2020/12/27 03:42:27;;;;;;;8.25;3.53;;;;;;;0.16;64.91;99352.56;3841833;23;20077;-76
2020/12/27 03:43:58;;;;;;;7.78;3.22;;;;;;;0.19;65.06;99357.63;3836635;23;20021;-76
2020/12/27 03:45:29;;;;;;;7.13;3.80;;;;;;;0.19;65.18;99356.81;3841825;23;20025;-77
2020/12/27 03:47:00;;;;;;;7.13;3.45;;;;;;;0.24;64.90;99336.31;3836652;23;20021;-77
2020/12/27 03:48:31;;;;;;;;;;;;;;;0.18;64.96;99344.59;3840589;23;20033;-77
2020/12/27 03:50:02;;;;;;;10.68;3.63;;;;;;;0.25;64.77;99325.69;3834740;23;19916;-77
2020/12/27 03:51:34;;;;;;;6.22;3.35;;;;;;;0.29;64.72;99327.19;3839433;23;20041;-77
2020/12/27 03:53:05;;;;;;;6.07;2.65;;;;;;;0.32;64.56;99313.00;3836617;23;20075;-77
2020/12/27 03:54:36;;;;;;;9.57;4.45;;;;;;;0.30;64.51;99313.13;3838501;23;20032;-77
2020/12/27 03:56:08;;;;;;;9.07;3.47;;;;;;;0.31;64.44;99300.81;3837732;23;20025;-76
2020/12/27 03:57:40;;;;;;;8.23;2.95;;;;;;;0.39;64.33;99301.16;3840164;23;20021;-75
2020/12/27 03:59:20;;;;;;;6.68;3.15;;;;;;;0.38;63.91;99296.84;3836194;23;20029;-77
2020/12/27 04:01:06;;;;;;;6.25;2.67;;;;;;;0.35;64.13;99283.91;3846589;23;20026;-77
2020/12/27 04:02:37;;;;;;;6.10;2.53;;;;;;;0.40;64.12;99279.19;3837369;23;20250;-77
2020/12/27 04:04:09;;;;;;;13.05;3.22;;;;;;;0.45;63.92;99271.00;3840246;23;20033;-75
2020/12/27 04:05:39;;;;;;;7.30;2.60;;;;;;;0.42;63.97;99258.06;3838394;23;20028;-76
2020/12/27 04:07:10;;;;;;;;;;;;;;;0.30;63.76;99264.94;3837908;23;20080;-76
2020/12/27 04:08:41;;;;;;;9.93;3.03;;;;;;;0.31;64.11;99258.72;3838431;23;19916;-75
2020/12/27 04:10:12;;;;;;;;;;;;;;;0.25;63.89;99254.69;3837773;23;20661;-77
2020/12/27 04:11:44;;;;;;;5.20;2.53;;;;;;;0.38;63.76;99249.50;3840671;23;19920;-77
2020/12/27 04:13:16;;;;;;;10.55;3.50;;;;;;;0.41;63.67;99236.16;3850846;23;20494;-76
2020/12/27 04:14:47;;;;;;;5.65;2.97;;;;;;;0.34;63.66;99219.09;3859926;23;20024;-77
2020/12/27 04:18:08;;;;;;;8.30;2.70;;;;;;;0.50;63.45;99234.72;3862392;23;20025;-77
2020/12/27 04:19:39;;;;;;;5.50;2.80;;;;;;;0.50;63.46;99224.22;3859316;23;20025;-76
2020/12/27 04:21:13;;;;;;;6.50;2.38;;;;;;;0.50;63.35;99224.22;3862787;23;20464;-76
2020/12/27 04:22:48;;;;;;;6.45;2.53;;;;;;;0.54;63.40;99214.31;3857391;23;20020;-74
2020/12/27 04:24:19;;;;;;;5.93;2.30;;;;;;;0.54;63.22;99206.44;3863384;23;20043;-75
2020/12/27 04:25:50;;;;;;;7.78;3.08;;;;;;;0.57;63.05;99208.84;3866574;23;20023;-74
2020/12/27 04:27:22;;;;;;;6.60;2.75;;;;;;;0.54;63.11;99201.16;3872578;23;20028;-73
2020/12/27 04:28:53;;;;;;;5.35;2.60;;;;;;;0.50;63.04;99191.78;3869264;23;20065;-73
2020/12/27 04:30:25;;;;;;;5.90;3.35;;;;;;;0.53;63.07;99191.59;3871951;23;20051;-74
2020/12/27 04:31:56;;;;;;;8.60;2.75;;;;;;;0.53;62.61;99196.84;3864330;23;20020;-76
2020/12/27 04:33:27;;;;;;;10.40;2.83;;;;;;;0.44;62.53;99188.63;3856279;23;20028;-77
2020/12/27 04:34:58;;;;;;;6.03;2.88;;;;;;;0.45;62.75;99186.81;3858479;23;20024;-77
2020/12/27 04:36:30;;;;;;;5.05;2.35;;;;;;;0.43;62.25;99184.31;3859645;23;20032;-77
2020/12/27 04:38:01;;;;;;;7.28;3.00;;;;;;;0.43;62.35;99181.69;3855618;23;20025;-76
2020/12/27 04:39:32;;;;;;;7.65;2.92;;;;;;;0.38;62.23;99178.50;3856341;23;20441;-77
2020/12/27 04:41:04;;;;;;;6.55;3.10;;;;;;;0.39;62.30;99169.66;3844438;23;20048;-77
2020/12/27 04:42:36;;;;;;;6.25;3.13;;;;;;;0.39;62.08;99166.22;3839450;23;20024;-75
2020/12/27 04:44:08;;;;;;;7.57;2.83;;;;;;;0.38;61.93;99167.97;3837943;23;20029;-76
2020/12/27 04:45:40;;;;;;;5.60;2.72;;;;;;;0.33;61.36;99164.81;3838132;23;20025;-75
2020/12/27 04:47:12;;;;;;;6.97;3.42;;;;;;;0.32;61.82;99162.31;3850534;23;20485;-76
2020/12/27 04:48:45;;;;;;;6.50;3.25;;;;;;;0.35;61.71;99157.69;3856564;23;20020;-76
2020/12/27 04:50:18;;;;;;;6.25;3.10;;;;;;;0.27;61.31;99165.22;3838787;23;20036;-78
2020/12/27 04:51:52;;;;;;;5.93;2.70;;;;;;;0.36;61.41;99161.13;3837743;23;20017;-74
2020/12/27 04:53:23;;;;;;;9.85;3.40;;;;;;;0.36;61.33;99159.38;3836027;23;20072;-77
2020/12/27 04:54:56;;;;;;;6.32;2.78;;;;;;;0.35;61.14;99155.06;3840238;23;20021;-76
2020/12/27 04:56:28;;;;;;;7.07;3.15;;;;;;;0.45;61.26;99156.13;3835197;23;20021;-77
2020/12/27 04:58:03;;;;;;;6.15;2.38;;;;;;;0.43;61.06;99150.13;3840361;23;20029;-77
2020/12/27 04:59:34;;;;;;;8.23;3.20;;;;;;;0.44;61.12;99157.06;3856851;23;20024;-77
2020/12/27 05:01:08;;;;;;;6.60;3.00;;;;;;;0.39;60.94;99148.63;3856928;23;20032;-77
2020/12/27 05:02:39;;;;;;;7.63;3.95;;;;;;;0.31;60.99;99145.66;3838410;23;20025;-76
2020/12/27 05:04:10;;;;;;;6.80;2.85;;;;;;;0.33;60.80;99143.78;3835890;23;20087;-75
2020/12/27 05:05:42;;;;;;;10.25;3.22;;;;;;;0.33;60.81;99138.53;3857587;23;20036;-77
2020/12/27 05:07:17;;;;;;;4.82;2.22;;;;;;;0.35;60.56;99136.66;3858169;23;20024;-78
2020/12/27 05:08:49;;;;;;;5.60;2.58;;;;;;;0.37;60.67;99124.25;3860025;23;20024;-76
2020/12/27 05:10:21;;;;;;;8.18;3.10;;;;;;;0.38;60.59;99125.91;3856470;23;20031;-77
2020/12/27 05:11:53;;;;;;;5.97;2.58;;;;;;;0.39;60.26;99122.34;3858339;23;20028;-78
2020/12/27 05:13:25;;;;;;;6.75;2.65;;;;;;;0.42;60.25;99123.94;3857125;23;20038;-76
2020/12/27 05:14:57;;;;;;;6.25;2.63;;;;;;;0.32;60.50;99118.44;3857638;23;20032;-74
2020/12/27 05:16:28;;;;;;;5.47;2.38;;;;;;;0.34;60.67;99108.66;3855870;22;20032;-76
2020/12/27 05:18:00;;;;;;;6.28;2.90;;;;;;;0.35;60.35;99099.84;3857125;23;20024;-77
2020/12/27 05:19:32;;;;;;;6.13;2.97;;;;;;;0.33;60.33;99093.00;3855862;23;20021;-77
2020/12/27 05:21:04;;;;;;;6.35;3.40;;;;;;;0.24;60.47;99092.66;3857938;23;20021;-77
2020/12/27 05:22:36;;;;;;;7.30;3.30;;;;;;;0.11;60.38;99086.53;3853954;22;20519;-77
2020/12/27 05:24:07;;;;;;;6.38;3.25;;;;;;;0.18;60.68;99086.97;3858241;23;20108;-77
2020/12/27 05:25:39;;;;;;;;;;;;;;;0.02;60.57;99081.88;3846846;23;20025;-77
2020/12/27 05:27:14;;;;;;;5.90;3.08;;;;;;;0.06;60.81;99088.59;3839617;23;19978;-76
2020/12/27 05:28:46;;;;;;;7.15;3.17;;;;;;;0.08;60.63;99069.19;3835068;23;20028;-77
2020/12/27 05:30:25;;;;;;;6.45;3.30;;;;;;;0.09;60.40;99063.00;3841193;23;20032;-76
2020/12/27 05:31:58;;;;;;;7.57;3.80;;;;;;;0.08;60.41;99058.69;3848153;23;20035;-77
2020/12/27 05:33:29;;;;;;;5.90;2.90;;;;;;;0.08;60.54;99056.03;3859119;23;20025;-77
2020/12/27 05:35:01;;;;;;;6.90;3.22;;;;;;;0.10;60.61;99046.25;3858167;22;20071;-76
2020/12/27 05:36:32;;;;;;;6.70;3.20;;;;;;;0.16;60.53;99045.00;3858479;23;20028;-77
2020/12/27 05:38:05;;;;;;;6.75;2.78;;;;;;;0.15;60.50;99046.81;3845345;23;20028;-77
2020/12/27 05:39:36;;;;;;;7.72;3.42;;;;;;;0.11;60.54;99036.59;3840705;23;20086;-77
2020/12/27 05:41:07;;;;;;;5.93;2.72;;;;;;;0.15;60.48;99035.44;3841095;22;20028;-76
2020/12/27 05:42:40;;;;;;;;;;;;;;;0.06;60.26;99031.66;3845162;23;20077;-77
2020/12/27 05:44:16;;;;;;;8.52;3.15;;;;;;;-0.04;60.90;99026.16;3843294;23;19944;-76
2020/12/27 05:45:46;;;;;;;7.50;3.00;;;;;;;-0.02;60.80;99026.06;3839251;23;20032;-77
2020/12/27 05:47:20;;;;;;;;;;;;;;;-0.07;60.89;99010.59;3839754;23;20029;-77
2020/12/27 05:48:54;;;;;;;6.90;2.38;;;;;;;0.04;60.68;99002.00;3842402;23;20428;-76
2020/12/27 05:50:27;;;;;;;6.45;2.90;;;;;;;0.02;60.84;99003.88;3837019;23;20072;-76
2020/12/27 05:51:59;;;;;;;6.47;3.08;;;;;;;-0.01;60.98;98998.84;3839559;23;20437;-77
2020/12/27 05:53:31;;;;;;;5.88;2.70;;;;;;;-0.01;60.90;98985.69;3835631;23;20036;-77
2020/12/27 05:55:04;;;;;;;9.07;3.30;;;;;;;-0.03;60.79;98991.03;3839260;23;20021;-77
2020/12/27 05:56:37;;;;;;;6.75;2.92;;;;;;;-0.07;60.99;98978.22;3834626;23;20040;-77
2020/12/27 05:58:10;;;;;;;12.13;4.10;;;;;;;-0.04;60.93;98978.00;3836069;23;20021;-75
2020/12/27 05:59:45;;;;;;;7.93;2.92;;;;;;;-0.04;60.84;98972.75;3837667;23;20036;-76
2020/12/27 06:01:21;;;;;;;7.25;2.70;;;;;;;-0.06;60.79;98958.88;3838683;23;20108;-77
2020/12/27 06:03:02;;;;;;;6.93;3.40;;;;;;;-0.12;60.82;98965.38;3861947;23;20035;-78
2020/12/27 06:05:04;;;;;;;5.88;2.97;;;;;;;-0.12;60.85;98959.31;3855863;23;20477;-77
2020/12/27 06:07:04;;;;;;;6.80;3.53;;;;;;;-0.18;60.96;98955.31;3864525;23;20043;-75
2020/12/27 06:09:05;;;;;;;8.38;3.55;;;;;;;-0.14;61.07;98950.69;3833203;23;20029;-73
2020/12/27 06:10:59;;;;;;;7.15;3.38;;;;;;;-0.20;61.10;98942.28;3724400;23;20037;-75
2020/12/27 06:12:48;;;;;;;6.30;3.08;;;;;;;-0.14;61.11;98934.91;3805789;23;20600;-74
2020/12/27 06:14:41;;;;;;;5.45;2.83;;;;;;;-0.10;61.08;98937.22;3815514;23;20021;-73
2020/12/27 06:16:20;;;;;;;7.88;3.70;;;;;;;-0.09;61.07;98933.66;3824322;23;20027;-75
2020/12/27 06:18:11;;;;;;;6.63;3.42;;;;;;;-0.12;61.19;98928.59;3846329;23;20032;-76
2020/12/27 06:20:17;;;;;;;8.63;3.10;;;;;;;-0.22;61.51;98917.03;3816969;23;20008;-73
2020/12/27 06:22:02;;;;;;;6.88;3.35;;;;;;;-0.13;61.20;98916.41;3854937;23;20032;-77
2020/12/27 06:23:34;;;;;;;7.30;3.55;;;;;;;-0.06;61.05;98919.47;3865223;23;20020;-74
2020/12/27 06:25:06;;;;;;;7.00;3.45;;;;;;;-0.06;61.25;98911.59;3865237;23;20020;-74
2020/12/27 06:26:38;;;;;;;5.85;2.90;;;;;;;0.01;61.29;98915.47;3870005;23;20024;-74
2020/12/27 06:28:09;;;;;;;5.95;3.30;;;;;;;-0.01;61.00;98912.13;3861561;23;20089;-73
2020/12/27 06:29:45;;;;;;;7.25;3.67;;;;;;;-0.01;61.37;98912.13;3867244;23;20087;-75
2020/12/27 06:31:21;;;;;;;6.75;3.55;;;;;;;-0.04;61.31;98915.78;3859001;23;20020;-74
2020/12/27 06:33:05;;;;;;;7.50;3.15;;;;;;;-0.03;61.30;98906.94;3858646;23;20329;-77
2020/12/27 06:34:36;;;;;;;6.82;3.22;;;;;;;-0.05;61.22;98902.75;3859975;23;20349;-77
2020/12/27 06:36:31;;;;;;;7.97;3.75;;;;;;;-0.06;61.34;98912.44;3862130;23;20035;-76
2020/12/27 06:38:14;;;;;;;7.60;3.55;;;;;;;-0.06;61.47;98907.19;3864405;23;20095;-78
2020/12/27 06:39:46;;;;;;;7.75;3.90;;;;;;;-0.04;61.48;98909.69;3861663;23;20035;-76
2020/12/27 06:41:18;;;;;;;6.47;3.17;;;;;;;-0.02;61.41;98899.94;3861132;23;20028;-76
2020/12/27 06:42:49;;;;;;;6.95;3.50;;;;;;;-0.02;61.17;98892.03;3860771;23;20024;-77
2020/12/27 06:44:38;;;;;;;6.60;3.65;;;;;;;-0.06;61.33;98899.31;3860239;23;20028;-75
2020/12/27 06:46:24;;;;;;;6.53;3.20;;;;;;;-0.01;61.35;98885.84;3858947;23;20028;-74
2020/12/27 06:47:57;;;;;;;7.88;3.45;;;;;;;-0.01;61.38;98888.47;3862312;23;20025;-76
2020/12/27 06:49:28;;;;;;;6.68;3.47;;;;;;;0.03;61.28;98882.03;3857109;23;20071;-76
2020/12/27 06:51:01;;;;;;;7.15;3.53;;;;;;;-0.04;61.43;98872.91;3860857;23;20086;-75
2020/12/27 06:52:33;;;;;;;7.80;3.42;;;;;;;0.05;61.44;98866.19;3860004;23;20483;-75
2020/12/27 06:54:04;;;;;;;10.20;3.38;;;;;;;0.05;61.50;98858.31;3859241;23;20028;-77
2020/12/27 06:55:36;;;;;;;7.88;3.70;;;;;;;0.05;61.42;98858.31;3846892;23;20021;-78
2020/12/27 06:57:09;;;;;;;7.68;3.80;;;;;;;0.07;61.25;98849.34;3841816;23;20454;-78
2020/12/27 06:58:41;;;;;;;6.80;3.40;;;;;;;0.09;61.29;98841.34;3834039;23;20042;-77
2020/12/27 07:00:23;;;;;;;5.75;3.20;;;;;;;0.01;61.21;98839.25;3839250;23;20048;-77
2020/12/27 07:02:11;;;;;;;8.23;3.67;;;;;;;-0.02;61.22;98835.06;3848985;23;20462;-77
2020/12/27 07:03:43;;;;;;;9.18;3.30;;;;;;;-0.07;61.45;98829.31;3852427;23;20025;-77
2020/12/27 07:05:30;;;;;;;5.43;2.90;;;;;;;0.03;61.45;98823.41;3843774;23;20025;-76
2020/12/27 07:07:01;;;;;;;10.23;4.18;;;;;;;-0.04;61.48;98825.59;3837817;23;20052;-77
2020/12/27 07:08:42;;;;;;;7.72;3.50;;;;;;;0.03;61.16;98820.78;3855084;23;20024;-77
2020/12/27 07:10:15;;;;;;;8.60;4.45;;;;;;;0.02;61.34;98806.78;3855674;23;20083;-78
2020/12/27 07:11:48;;;;;;;11.05;3.95;;;;;;;-0.02;61.56;98802.69;3861543;23;20386;-76
2020/12/27 07:13:19;;;;;;;8.35;4.03;;;;;;;-0.04;61.65;98801.97;3852128;23;20055;-77
2020/12/27 07:14:50;;;;;;;6.68;3.65;;;;;;;-0.02;61.54;98792.19;3841879;23;20025;-77
2020/12/27 07:16:22;;;;;;;;;;;;;;;-0.04;61.44;98788.81;3840601;23;20017;-77
2020/12/27 07:17:54;;;;;;;7.97;3.45;;;;;;;0.02;61.38;98787.56;3852949;23;19920;-74
2020/12/27 07:19:26;;;;;;;7.70;3.22;;;;;;;0.01;61.42;98788.50;3850127;23;20005;-78
2020/12/27 07:20:58;;;;;;;8.20;3.80;;;;;;;0.00;61.35;98792.94;3836543;23;20024;-77
2020/12/27 07:22:30;;;;;;;8.45;3.63;;;;;;;0.09;61.27;98789.66;3835772;23;20059;-78
2020/12/27 07:24:22;;;;;;;7.55;4.05;;;;;;;0.01;61.32;98796.38;3836730;23;20032;-78
2020/12/27 07:25:57;;;;;;;7.47;3.20;;;;;;;0.03;61.38;98797.94;3845898;23;20465;-77
2020/12/27 07:27:30;;;;;;;5.68;3.28;;;;;;;0.02;61.47;98791.00;3855348;23;20490;-78
2020/12/27 07:29:07;;;;;;;7.70;4.32;;;;;;;0.04;61.48;98778.59;3853448;23;20027;-77